Hastings Natural History Reservation, California Weather observations

Data are for 10 minute period ending at time listed.
 Day   Time   Solar   Ave.   Ave.  Ave.  Vector  Max.   Baro.   Total    
  of    of     Rad.   Air    Rel.  Wind   Wind   Wind  Press.  Precip.   
Year   Day            Temp.  Hum.  Speed  Dir.   Gust                    
2015   (PST)  Kw/m2    F      %     mph   deg.    mph    mb.     in.     
-------------------------------------------------------------------------
 180    2:50   0.00   53.4    85    0.5    55     1.2   952.1    0.00 
 180    3:00   0.00   53.3    85    0.6    40     1.3   952.1    0.00 
 180    3:10   0.00   53.2    85    0.1    36     0.9   952.0    0.00 
 180    3:20   0.00   53.0    85    0.2    53     0.7   951.9    0.00 
 180    3:30   0.00   52.6    84    0.3    42     0.9   951.9    0.00 
 180    3:40   0.00   52.5    85    0.4    55     1.1   951.8    0.00 
 180    3:50   0.00   52.4    85    0.6    53     1.4   951.9    0.00 
 180    4:00   0.00   52.3    85    1.2    53     1.6   951.9    0.00 
 180    4:10   0.00   52.4    85    0.6    49     0.9   951.9    0.00 
 180    4:20   0.00   52.4    84    0.1    41     0.7   951.9    0.00 
 180    4:30   0.00   52.4    85    0.6    49     1.4   951.8    0.00 
 180    4:40   0.00   52.4    85    0.2    49     1.2   951.8    0.00 
 180    4:50   0.00   52.4    84    0.5    51     1.2   951.9    0.00 
 180    5:00   0.00   52.5    85    0.3    52     1.1   952.0    0.00 
 180    5:10   0.00   52.5    85    0.1    39     0.7   952.0    0.00 
 180    5:20   0.00   52.5    86    0.1    56     0.7   952.0    0.00 
 180    5:30   0.00   52.9    86    1.0    70     2.0   952.1    0.00 
 180    5:40   0.00   53.4    84    0.0    85     0.7   952.2    0.00 
 180    5:50   0.00   53.4    84    0.3    45     2.0   952.3    0.00 
 180    6:00   0.00   53.7    85    0.5    59     1.8   952.3    0.00 
 180    6:10   0.01   54.0    84    0.2    42     1.4   952.4    0.00 
 180    6:20   0.01   54.2    84    0.3    53     1.2   952.4    0.00 
 180    6:30   0.03   54.6    83    0.6    61     1.6   952.4    0.00 
 180    6:40   0.03   55.4    82    0.2    79     0.9   952.4    0.00 
 180    6:50   0.03   56.0    80    0.4    57     1.2   952.4    0.00 
 180    7:00   0.03   56.5    79    0.3    50     0.9   952.4    0.00 
 180    7:10   0.03   57.0    78    0.0     0     0.0   952.5    0.00 
 180    7:20   0.03   57.5    78    0.5    62     1.7   952.6    0.00 
 180    7:30   0.07   58.2    77    0.0    80     0.6   952.6    0.00 
 180    7:40   0.17   59.9    73    0.0     0     0.0   952.5    0.00 
 180    7:50   0.22   64.5    64    0.0     0     0.0   952.5    0.00 
 180    8:00   0.23   68.3    58    0.1   241     1.5   952.4    0.00 
 180    8:10   0.29   70.9    53    0.3   227     1.8   952.3    0.00 
 180    8:20   0.32   73.5    50    0.0    95     0.6   952.2    0.00 
 180    8:30   0.35   76.4    45    0.2   201     2.5   952.0    0.00 
 180    8:40   0.38   77.9    40    1.3   198     3.0   952.0    0.00 
 180    8:50   0.41   79.7    37    1.4   217     2.9   952.0    0.00 
 180    9:00   0.44   80.8    32    0.9   180     2.7   952.2    0.00 
 180    9:10   0.47   82.2    28    0.8   282     2.6   952.2    0.00 
 180    9:20   0.49   84.4    24    1.0   265     4.4   952.3    0.00 
 180    9:30   0.52   84.3    25    1.2   276     3.7   952.3    0.00 
 180    9:40   0.55   85.3    26    1.2   272     4.5   952.4    0.00 
 180    9:50   0.58   84.4    28    3.1   260     6.7   952.3    0.00 
 180   10:00   0.60   84.8    28    3.1   262     8.3   952.3    0.00 
 180   10:10   0.62   84.8    28    2.5   257     7.0   952.3    0.00 
 180   10:20   0.68   85.1    28    3.6   251     7.4   952.3    0.00 
 180   10:30   0.70   85.0    28    3.0   257     6.7   952.3    0.00 
 180   10:40   0.73   85.1    27    4.2   242    11.1   952.2    0.00 
 180   10:50   0.75   84.9    28    4.1   247     8.5   952.2    0.00 
 180   11:00   0.77   84.3    29    4.3   246     8.6   952.2    0.00 
 180   11:10   0.78   85.6    28    3.5   255    10.2   952.2    0.00 
 180   11:20   0.81   85.4    27    3.8   250     8.0   952.3    0.00 
 180   11:30   0.81   86.0    27    3.9   241    11.0   952.2    0.00 
 180   11:40   0.84   85.9    28    5.0   242     9.9   952.3    0.00 
 180   11:50   0.79   86.8    26    5.2   241     9.7   952.3    0.00 
 180   12:00   0.84   86.4    27    5.7   242    10.7   952.3    0.00 
 180   12:10   0.86   86.6    26    4.6   245     9.7   952.3    0.00 
 180   12:20   0.88   88.2    26    4.6   246     9.3   952.2    0.00 
 180   12:30   0.87   87.6    27    4.4   244     9.7   952.2    0.00 
 180   12:40   0.88   87.9    28    5.0   246    12.7   952.2    0.00 
 180   12:50   0.89   87.5    29    5.1   255    10.4   952.1    0.00 
 180   13:00   0.90   88.9    28    3.5   263    10.7   952.1    0.00 
 180   13:10   0.91   89.9    28    2.9   268     7.2   952.0    0.00 
 180   13:20   0.89   89.3    28    3.8   265    10.7   952.0    0.00 
 180   13:30   0.90   89.6    27    2.9   284     8.0   951.9    0.00 
 180   13:40   0.90   90.5    27    3.6   260     9.8   951.8    0.00 
 180   13:50   0.88   89.1    28    3.9   253    10.7   951.8    0.00 
 180   14:00   0.90   89.9    27    2.6   267    10.2   951.8    0.00 
 180   14:10   0.90   91.5    26    2.4   359     8.8   951.8    0.00 
 180   14:20   0.90   91.0    26    2.3   334     8.0   951.7    0.00 
 180   14:30   0.87   90.3    26    3.5   258     7.9   951.6    0.00 
 180   14:40   0.84   89.9    25    4.6   253    10.5   951.5    0.00 
 180   14:50   0.85   90.1    25    3.3   254     9.3   951.5    0.00 
 180   15:00   0.84   91.3    24    2.2   297     6.5   951.5    0.00 
 180   15:10   0.84   91.6    23    1.9   330     7.9   951.4    0.00 
 180   15:20   0.82   90.6    24    3.1   271    10.2   951.3    0.00 
 180   15:30   0.81   90.6    24    2.8     3     9.7   951.2    0.00 
 180   15:40   0.79   89.9    24    2.6   294     6.4   951.2    0.00 
 180   15:50   0.75   89.1    24    3.5   272     8.8   951.2    0.00 
 180   16:00   0.75   89.1    24    2.1   292     7.3   951.2    0.00 
 180   16:10   0.71   88.7    24    4.5   264    10.3   951.2    0.00 
 180   16:20   0.67   86.6    26    4.8   253    10.4   951.2    0.00 
 180   16:30   0.66   87.0    26    3.5   256     8.9   951.2    0.00 
 180   16:40   0.65   87.8    25    2.5   261     8.1   951.2    0.00 
 180   16:50   0.60   89.2    24    2.7   291     7.8   951.1    0.00 
 180   17:00   0.59   88.8    24    2.8   264    10.4   951.2    0.00 
 180   17:10   0.58   88.2    25    2.2   351     7.8   951.2    0.00 
 180   17:20   0.53   88.3    25    2.6   275     8.0   951.2    0.00 
 180   17:30   0.47   86.6    28    4.1   255    10.0   951.2    0.00 
 180   17:40   0.48   87.2    27    2.2   332     6.1   951.2    0.00 
 180   17:50   0.45   88.0    27    1.9   296     6.9   951.2    0.00 
 180   18:00   0.42   88.3    27    2.2   296     6.1   951.2    0.00 
 180   18:10   0.38   88.2    27    1.7   274     5.4   951.1    0.00 
 180   18:20   0.32   87.2    28    2.5   263     7.8   951.1    0.00 
 180   18:30   0.29   87.2    28    1.8   261     5.4   951.1    0.00 
 180   18:40   0.31   86.9    28    2.4   351     8.6   951.1    0.00 
 180   18:50   0.25   86.0    28    2.1   274     6.6   951.1    0.00 
 180   19:00   0.22   84.7    29    3.9   248     7.7   951.1    0.00 
 180   19:10   0.14   83.6    30    2.4   255     6.0   951.1    0.00 
 180   19:20   0.05   83.5    31    0.9   270     2.9   951.1    0.00 
 180   19:30   0.03   82.9    31    1.8   260     5.3   951.1    0.00 
 180   19:40   0.03   81.9    32    2.4   246     5.3   951.1    0.00 
 180   19:50   0.01   80.9    34    1.1   260     3.2   951.1    0.00 
 180   20:00   0.01   80.0    36    1.3   247     2.7   951.0    0.00 
 180   20:10   0.01   79.4    37    0.5    32     1.5   950.9    0.00 
 180   20:20   0.01   78.2    39    0.1    40     1.0   950.9    0.00 
 180   20:30   0.00   76.9    40    0.5    48     1.2   950.8    0.00 
 180   20:40   0.00   75.7    41    0.4    50     1.0   950.8    0.00 
 180   20:50   0.00   74.6    42    0.1    55     1.1   950.8    0.00 
 180   21:00   0.00   73.3    42    1.1    48     1.5   950.8    0.00 
 180   21:10   0.00   72.4    43    0.8    45     1.5   950.8    0.00 
 180   21:20   0.00   71.7    44    0.0    48     0.5   950.8    0.00 
 180   21:30   0.00   71.0    44    0.9    51     1.5   950.8    0.00 
 180   21:40   0.00   70.3    44    0.5    48     1.5   950.8    0.00 
 180   21:50   0.00   69.8    45    0.8    49     1.4   950.9    0.00 
 180   22:00   0.00   69.4    46    0.7    51     1.5   951.0    0.00 
 180   22:10   0.00   69.0    46    0.2    37     0.9   951.1    0.00 
 180   22:20   0.00   68.8    47    0.1    57     0.7   951.2    0.00 
 180   22:30   0.00   68.6    47    0.0   239     0.4   951.2    0.00 
 180   22:40   0.00   68.2    48    0.0    69     0.5   951.3    0.00 
 180   22:50   0.00   67.9    48    0.0     0     0.0   951.3    0.00 
 180   23:00   0.00   67.7    48    0.0   110     0.9   951.3    0.00 
 180   23:10   0.00   67.4    49    0.0   348     0.6   951.4    0.00 
 180   23:20   0.00   67.2    50    0.0     0     0.0   951.3    0.00 
 180   23:30   0.00   67.0    50    0.0     0     0.0   951.2    0.00 
 180   23:40   0.00   66.7    50    0.0   255     0.7   951.2    0.00 
 180   23:50   0.00   66.2    50    0.6    48     1.7   951.1    0.00 
 181    0:00   0.00   66.1    51    0.2    45     1.0   951.1    0.00 
 181    0:10   0.00   65.9    51    0.0     0     0.0   951.2    0.00 
 181    0:20   0.00   65.7    50    0.8    52     1.8   951.2    0.00 
 181    0:30   0.00   65.7    50    0.0     0     0.0   951.2    0.00 
 181    0:40   0.00   65.4    50    0.1    40     0.9   951.1    0.00 
 181    0:50   0.00   65.4    50    0.0    37     0.6   951.1    0.00 
 181    1:00   0.00   65.4    50    0.0   220     0.5   951.1    0.00 
 181    1:10   0.00   65.2    51    0.0   233     0.3   950.9    0.00 
 181    1:20   0.00   65.1    51    0.0     0     0.0   950.8    0.00 
 181    1:30   0.00   64.8    52    0.1   224     0.9   950.8    0.00 
 181    1:40   0.00   64.8    52    0.3   238     1.2   950.8    0.00 
 181    1:50   0.00   64.8    52    0.2    23     1.2   950.8    0.00 
 181    2:00   0.00   64.8    51    0.0     0     0.0   950.8    0.00 
 181    2:10   0.00   64.8    51    0.2    50     0.9   950.8    0.00 
 181    2:20   0.00   65.0    50    0.0    28     0.6   950.7    0.00 
 181    2:30   0.00   64.8    50    0.0    30     0.8   950.6    0.00 
 181    2:40   0.00   64.6    49    0.2    41     1.3   950.5    0.00 

Return to Hastings Natural History Reservation graphs page.


Western Regional Climate Center,wrcc@dri.edu